createdAt,value
2023-02-14T05:00:43.527Z,-3.72
2023-02-14T05:01:43.372Z,-3.75
2023-02-14T05:02:43.363Z,-3.78
2023-02-14T05:03:43.407Z,-3.76
2023-02-14T05:04:43.343Z,-3.78
2023-02-14T05:05:43.341Z,-3.81
2023-02-14T05:06:43.335Z,-3.81
2023-02-14T05:07:43.332Z,-3.81
2023-02-14T05:08:43.298Z,-3.81
2023-02-14T05:09:43.290Z,-3.81
2023-02-14T05:10:43.290Z,-3.81
2023-02-14T05:11:43.243Z,-3.82
2023-02-14T05:12:43.243Z,-3.85
2023-02-14T05:13:43.198Z,-3.90
2023-02-14T05:14:43.279Z,-3.93
2023-02-14T05:15:43.196Z,-3.97
2023-02-14T05:16:43.280Z,-3.99
2023-02-14T05:17:43.167Z,-3.97
2023-02-14T05:18:43.159Z,-4.03
2023-02-14T05:19:43.197Z,-4.04
2023-02-14T05:20:43.207Z,-4.06
2023-02-14T05:21:43.107Z,-4.07
2023-02-14T05:22:43.147Z,-4.06
2023-02-14T05:23:43.126Z,-4.03
2023-02-14T05:24:43.124Z,-4.00
2023-02-14T05:25:43.071Z,-3.97
2023-02-14T05:26:43.082Z,-3.96
2023-02-14T05:27:43.041Z,-3.93
2023-02-14T05:28:43.061Z,-3.91
2023-02-14T05:29:43.070Z,-3.91
2023-02-14T05:30:43.107Z,-3.86
2023-02-14T05:31:43.165Z,-3.82
2023-02-14T05:32:43.020Z,-3.72
2023-02-14T05:33:42.970Z,-3.69
2023-02-14T05:34:43.198Z,-3.63
2023-02-14T05:35:42.943Z,-3.60
2023-02-14T05:36:42.968Z,-3.53
2023-02-14T05:37:42.908Z,-3.49
2023-02-14T05:38:42.920Z,-3.46
2023-02-14T05:39:42.918Z,-3.46
2023-02-14T05:40:42.911Z,-3.46
2023-02-14T05:41:42.872Z,-3.53
2023-02-14T05:42:42.876Z,-3.56
2023-02-14T05:43:42.841Z,-3.59
2023-02-14T05:44:42.884Z,-3.57
2023-02-14T05:45:42.849Z,-3.57
2023-02-14T05:46:42.831Z,-3.56
2023-02-14T05:47:42.843Z,-3.54
2023-02-14T05:48:42.805Z,-3.54
2023-02-14T05:49:43.024Z,-3.49
2023-02-14T05:50:42.794Z,-3.52
2023-02-14T05:51:42.785Z,-3.53
2023-02-14T05:52:42.769Z,-3.56
2023-02-14T05:53:42.726Z,-3.54
2023-02-14T05:54:42.736Z,-3.49
2023-02-14T05:55:42.786Z,-3.45
2023-02-14T05:56:42.714Z,-3.43
2023-02-14T05:57:42.672Z,-3.45
2023-02-14T05:58:42.690Z,-3.42
2023-02-14T05:59:42.675Z,-3.39
2023-02-14T06:00:42.666Z,-3.38
2023-02-14T06:01:42.728Z,-3.31
2023-02-14T06:02:42.651Z,-3.28
2023-02-14T06:03:42.610Z,-3.27
2023-02-14T06:04:42.738Z,-3.27
2023-02-14T06:05:42.584Z,-3.25
2023-02-14T06:06:42.604Z,-3.25
2023-02-14T06:07:42.772Z,-3.25
2023-02-14T06:08:42.572Z,-3.27
2023-02-14T06:09:42.548Z,-3.23
2023-02-14T06:10:42.532Z,-3.21
2023-02-14T06:11:42.526Z,-3.18
2023-02-14T06:12:42.520Z,-3.17
2023-02-14T06:13:42.678Z,-3.15
2023-02-14T06:14:42.500Z,-3.14
2023-02-14T06:15:42.483Z,-3.14
2023-02-14T06:16:42.539Z,-3.10
2023-02-14T06:17:42.448Z,-3.09
2023-02-14T06:18:42.457Z,-3.07
2023-02-14T06:19:42.691Z,-3.05
2023-02-14T06:20:42.426Z,-3.05
2023-02-14T06:21:42.389Z,-3.05
2023-02-14T06:22:42.465Z,-3.05
2023-02-14T06:23:42.366Z,-3.06
2023-02-14T06:24:42.402Z,-3.07
2023-02-14T06:25:42.448Z,-3.09
2023-02-14T06:26:42.338Z,-3.10
2023-02-14T06:27:42.339Z,-3.12
2023-02-14T06:28:42.305Z,-3.12
2023-02-14T06:29:42.319Z,-3.14
2023-02-14T06:30:42.525Z,-3.15
2023-02-14T06:31:42.454Z,-3.14
2023-02-14T06:32:42.282Z,-3.14
2023-02-14T06:33:49.309Z,-3.15
2023-02-14T06:34:42.242Z,-3.14
2023-02-14T06:35:45.053Z,-3.14
2023-02-14T06:36:42.198Z,-3.12
2023-02-14T06:37:42.222Z,-3.10
2023-02-14T06:38:42.180Z,-3.09
2023-02-14T06:39:42.185Z,-3.10
2023-02-14T06:40:42.874Z,-3.10
2023-02-14T06:41:42.211Z,-3.07
2023-02-14T06:42:42.134Z,-3.07
2023-02-14T06:43:42.166Z,-3.06
2023-02-14T06:44:42.111Z,-3.05
2023-02-14T06:45:42.110Z,-3.00
2023-02-14T06:46:42.212Z,-2.99
2023-02-14T06:47:42.089Z,-2.96
2023-02-14T06:48:42.068Z,-2.94
2023-02-14T06:49:42.086Z,-2.96
2023-02-14T06:50:42.186Z,-2.94
2023-02-14T06:51:42.069Z,-2.86
2023-02-14T06:52:42.096Z,-2.81
2023-02-14T06:53:42.011Z,-2.74
2023-02-14T06:54:41.991Z,-2.67
2023-02-14T06:55:43.823Z,-2.61
2023-02-14T06:56:41.995Z,-2.55
2023-02-14T06:57:41.979Z,-2.45
2023-02-14T06:58:42.326Z,-2.39
2023-02-14T06:59:41.944Z,-2.30
2023-02-14T07:00:42.828Z,-2.21
2023-02-14T07:01:41.972Z,-2.13
2023-02-14T07:02:41.985Z,-2.05
2023-02-14T07:03:41.893Z,-1.92
2023-02-14T07:04:41.855Z,-1.87
2023-02-14T07:05:41.871Z,-1.76
2023-02-14T07:06:41.889Z,-1.73
2023-02-14T07:07:41.866Z,-1.70
2023-02-14T07:08:41.824Z,-1.62
2023-02-14T07:09:41.831Z,-1.59
2023-02-14T07:10:41.788Z,-1.52
2023-02-14T07:11:41.852Z,-1.45
2023-02-14T07:12:41.762Z,-1.40
2023-02-14T07:13:41.769Z,-1.34
2023-02-14T07:14:41.740Z,-1.27
2023-02-14T07:15:41.755Z,-1.17
2023-02-14T07:16:41.749Z,-1.07
2023-02-14T07:17:41.771Z,-0.98
2023-02-14T07:18:41.710Z,-0.89
2023-02-14T07:19:41.688Z,-0.82
2023-02-14T07:20:41.657Z,-0.72
2023-02-14T07:21:41.717Z,-0.70
2023-02-14T07:22:41.639Z,-0.64
2023-02-14T07:23:41.645Z,-0.57
2023-02-14T07:24:41.602Z,-0.54
2023-02-14T07:25:41.650Z,-0.51
2023-02-14T07:26:41.578Z,-0.46
2023-02-14T07:27:41.647Z,-0.39
2023-02-14T07:28:43.281Z,-0.26
2023-02-14T07:29:41.583Z,-0.21
2023-02-14T07:30:41.575Z,-0.07
2023-02-14T07:31:41.654Z,0.04
2023-02-14T07:32:41.523Z,0.18
2023-02-14T07:33:41.725Z,0.33
2023-02-14T07:34:41.488Z,0.57
2023-02-14T07:35:41.481Z,0.75
2023-02-14T07:36:41.448Z,0.78
2023-02-14T07:37:41.486Z,0.83
2023-02-14T07:38:41.468Z,0.83
2023-02-14T07:39:44.738Z,0.73
2023-02-14T07:40:41.399Z,0.66
2023-02-14T07:41:41.423Z,0.68
2023-02-14T07:42:41.425Z,0.73
2023-02-14T07:43:41.374Z,0.75
2023-02-14T07:44:41.345Z,0.68
2023-02-14T07:45:42.085Z,0.66
2023-02-14T07:46:41.362Z,0.76
2023-02-14T07:47:41.336Z,0.88
2023-02-14T07:48:41.303Z,0.97
2023-02-14T07:49:41.326Z,1.04
2023-02-14T07:50:41.274Z,1.05
2023-02-14T07:51:41.345Z,1.15
2023-02-14T07:52:41.261Z,1.32
2023-02-14T07:53:41.267Z,1.51
2023-02-14T07:54:41.236Z,1.63
2023-02-14T07:55:41.241Z,1.70
2023-02-14T07:56:41.427Z,1.69
2023-02-14T07:57:41.232Z,1.76
2023-02-14T07:58:41.180Z,1.81
2023-02-14T07:59:41.191Z,1.79
2023-02-14T08:00:41.231Z,1.69
2023-02-14T08:01:41.222Z,1.58
2023-02-14T08:02:41.317Z,1.65
2023-02-14T08:03:41.128Z,1.72
2023-02-14T08:04:41.125Z,1.77
2023-02-14T08:05:41.128Z,1.65
2023-02-14T08:06:41.118Z,1.54
2023-02-14T08:07:41.087Z,1.33
2023-02-14T08:08:41.224Z,1.11
2023-02-14T08:09:41.120Z,0.90
2023-02-14T08:10:41.046Z,0.70
2023-02-14T08:11:41.147Z,0.55
2023-02-14T08:12:41.049Z,0.38
2023-02-14T08:13:41.008Z,0.23
2023-02-14T08:14:41.035Z,0.14
2023-02-14T08:15:41.162Z,0.03
2023-02-14T08:16:40.992Z,-0.08
2023-02-14T08:17:40.944Z,-0.15
2023-02-14T08:18:40.961Z,-0.15
2023-02-14T08:19:40.943Z,-0.11
2023-02-14T08:20:41.079Z,-0.14
2023-02-14T08:21:40.902Z,-0.16
2023-02-14T08:22:40.864Z,-0.18
2023-02-14T08:23:40.874Z,-0.16
2023-02-14T08:24:40.841Z,-0.11
2023-02-14T08:25:40.885Z,-0.04
2023-02-14T08:26:40.814Z,0.03
2023-02-14T08:27:40.816Z,0.08
2023-02-14T08:28:40.795Z,0.14
2023-02-14T08:29:40.796Z,0.20
2023-02-14T08:30:40.808Z,0.28
2023-02-14T08:31:40.800Z,0.32
2023-02-14T08:32:40.859Z,0.38
2023-02-14T08:33:40.749Z,0.44
2023-02-14T08:34:40.701Z,0.47
2023-02-14T08:35:40.767Z,0.47
2023-02-14T08:36:40.688Z,0.50
2023-02-14T08:37:40.711Z,0.53
2023-02-14T08:38:40.664Z,0.57
2023-02-14T08:39:40.683Z,0.61
2023-02-14T08:40:40.751Z,0.68
2023-02-14T08:41:40.648Z,0.73
2023-02-14T08:42:40.617Z,0.76
2023-02-14T08:43:40.631Z,0.78
2023-02-14T08:44:40.576Z,0.80
2023-02-14T08:45:40.682Z,0.75
2023-02-14T08:46:40.595Z,0.70
2023-02-14T08:47:40.571Z,0.70
2023-02-14T08:48:40.549Z,0.76
2023-02-14T08:49:40.546Z,0.76
2023-02-14T08:50:40.539Z,0.78
2023-02-14T08:51:40.661Z,0.78
2023-02-14T08:52:40.499Z,0.79
2023-02-14T08:53:40.509Z,0.79
2023-02-14T08:54:40.447Z,0.83
2023-02-14T08:55:40.571Z,0.87
2023-02-14T08:56:40.422Z,0.93
2023-02-14T08:57:41.027Z,0.96
2023-02-14T08:58:40.406Z,1.02
2023-02-14T08:59:40.423Z,1.12
2023-02-14T09:00:40.425Z,1.18
2023-02-14T09:01:40.403Z,1.24
2023-02-14T09:02:40.336Z,1.30
2023-02-14T09:03:40.468Z,1.36
2023-02-14T09:04:40.386Z,1.40
2023-02-14T09:05:40.370Z,1.44
2023-02-14T09:06:40.280Z,1.48
2023-02-14T09:07:40.309Z,1.51
2023-02-14T09:08:40.302Z,1.58
2023-02-14T09:09:40.290Z,1.60
2023-02-14T09:10:40.260Z,1.63
2023-02-14T09:11:40.306Z,1.68
2023-02-14T09:12:40.214Z,1.70
2023-02-14T09:13:40.266Z,1.77
2023-02-14T09:14:40.170Z,1.72
2023-02-14T09:15:40.216Z,1.73
2023-02-14T09:16:40.206Z,1.77
2023-02-14T09:17:40.205Z,1.77
2023-02-14T09:18:40.190Z,1.81
2023-02-14T09:19:40.135Z,1.83
2023-02-14T09:20:40.119Z,1.87
2023-02-14T09:21:40.143Z,1.95
2023-02-14T09:22:40.197Z,1.98
2023-02-14T09:23:40.187Z,1.95
2023-02-14T09:24:40.066Z,1.93
2023-02-14T09:25:40.065Z,1.95
2023-02-14T09:26:40.026Z,1.98
2023-02-14T09:27:40.033Z,1.90
2023-02-14T09:28:40.092Z,1.95
2023-02-14T09:29:40.034Z,1.99
2023-02-14T09:30:39.979Z,2.03
2023-02-14T09:31:40.171Z,2.09
2023-02-14T09:32:39.976Z,2.14
2023-02-14T09:33:39.980Z,2.16
2023-02-14T09:34:40.019Z,2.14
2023-02-14T09:35:39.999Z,2.17
2023-02-14T09:36:39.921Z,2.23
2023-02-14T09:37:39.934Z,2.17
2023-02-14T09:38:39.875Z,2.20
2023-02-14T09:39:39.913Z,2.20
2023-02-14T09:42:18.809Z,2.30
2023-02-14T09:42:49.931Z,2.36
2023-02-14T09:43:50.682Z,2.41
2023-02-14T09:44:49.909Z,2.45
2023-02-14T09:45:49.884Z,2.46
2023-02-14T09:46:49.914Z,2.52
2023-02-14T09:47:51.662Z,2.54
2023-02-14T09:48:49.914Z,2.61
2023-02-14T09:49:49.903Z,2.67
2023-02-14T09:50:49.826Z,2.72
2023-02-14T09:51:49.815Z,2.75
2023-02-14T09:52:49.814Z,2.79
2023-02-14T09:54:21.482Z,2.82
2023-02-14T09:54:49.777Z,2.79
2023-02-14T09:55:49.765Z,2.81
2023-02-14T09:56:51.564Z,2.85
2023-02-14T09:57:49.740Z,2.89
2023-02-14T09:58:49.746Z,2.89
2023-02-14T09:59:49.919Z,2.87
2023-02-14T10:00:49.767Z,2.92
2023-02-14T10:01:49.758Z,2.99
2023-02-14T10:02:49.672Z,3.06
2023-02-14T10:03:49.674Z,3.11
2023-02-14T10:04:49.655Z,3.11
2023-02-14T10:05:49.868Z,3.10
2023-02-14T10:06:49.614Z,3.06
2023-02-14T10:07:57.120Z,3.08
2023-02-14T10:08:58.260Z,3.13
2023-02-14T10:09:49.576Z,3.18
2023-02-14T10:10:56.642Z,3.21
2023-02-14T10:11:49.550Z,3.28
2023-02-14T10:12:49.539Z,3.31
2023-02-14T10:13:49.538Z,3.36
2023-02-14T10:14:49.509Z,3.45
2023-02-14T10:15:49.540Z,3.40
2023-02-14T10:16:49.571Z,3.45
2023-02-14T10:17:49.499Z,3.48
2023-02-14T10:18:49.449Z,3.54
2023-02-14T10:19:49.490Z,3.61
2023-02-14T10:20:49.443Z,3.66
2023-02-14T10:21:49.476Z,3.75
2023-02-14T10:22:49.571Z,3.76
2023-02-14T10:23:49.422Z,3.78
2023-02-14T10:24:49.379Z,3.80
2023-02-14T10:25:49.428Z,3.90
2023-02-14T10:26:49.376Z,3.91
2023-02-14T10:27:49.367Z,3.98
2023-02-14T10:28:49.405Z,4.00
2023-02-14T10:29:49.423Z,4.06
2023-02-14T10:30:49.385Z,4.11
2023-02-14T10:31:49.414Z,4.12
2023-02-14T10:32:49.296Z,4.16
2023-02-14T10:33:49.306Z,4.22
2023-02-14T10:34:49.364Z,4.09
2023-02-14T10:35:49.278Z,4.02
2023-02-14T10:36:49.234Z,4.06
2023-02-14T10:37:49.288Z,4.20
2023-02-14T10:38:49.246Z,4.29
2023-02-14T10:39:49.286Z,4.34
2023-02-14T10:40:49.501Z,4.37
2023-02-14T10:41:49.229Z,4.40
2023-02-14T10:42:49.148Z,4.41
2023-02-14T10:43:49.247Z,4.45
2023-02-14T10:44:49.142Z,4.52
2023-02-14T10:45:49.169Z,4.54
2023-02-14T10:46:49.162Z,4.51
2023-02-14T10:47:49.144Z,4.54
2023-02-14T10:48:49.097Z,4.55
2023-02-14T10:49:49.092Z,4.59
2023-02-14T10:50:49.140Z,4.55
2023-02-14T10:51:49.074Z,4.62
2023-02-14T10:52:49.084Z,4.69
2023-02-14T10:53:49.069Z,4.75
2023-02-14T10:54:49.081Z,4.85
2023-02-14T10:55:49.044Z,4.96
2023-02-14T10:56:49.009Z,5.03
2023-02-14T10:57:49.010Z,5.06
2023-02-14T10:58:49.023Z,5.12
2023-02-14T10:59:48.990Z,5.18
2023-02-14T11:00:48.958Z,5.22
2023-02-14T11:01:48.938Z,5.30
2023-02-14T11:02:48.911Z,5.36
2023-02-14T11:03:48.995Z,5.42
2023-02-14T11:04:48.928Z,5.43
2023-02-14T11:05:48.895Z,5.51
2023-02-14T11:06:48.887Z,5.54
2023-02-14T11:07:48.868Z,5.61
2023-02-14T11:08:48.829Z,5.63
2023-02-14T11:09:49.041Z,5.67
2023-02-14T11:10:48.819Z,5.74
2023-02-14T11:11:48.836Z,5.75
2023-02-14T11:12:48.779Z,5.75
2023-02-14T11:13:48.810Z,5.78
2023-02-14T11:14:56.108Z,5.82
2023-02-14T11:15:48.782Z,5.86
2023-02-14T11:16:51.481Z,5.94
2023-02-14T11:17:48.737Z,5.97
2023-02-14T11:18:48.731Z,5.97
2023-02-14T11:19:48.714Z,5.93
2023-02-14T11:20:48.884Z,5.96
2023-02-14T11:21:48.690Z,6.01
2023-02-14T11:22:48.656Z,6.08
2023-02-14T11:23:48.654Z,6.17
2023-02-14T11:24:48.624Z,6.18
2023-02-14T11:25:48.632Z,6.19
2023-02-14T11:26:48.675Z,6.25
2023-02-14T11:27:48.602Z,6.31
2023-02-14T11:28:48.732Z,6.34
2023-02-14T11:29:48.608Z,6.36
2023-02-14T11:30:48.691Z,6.41
2023-02-14T11:31:48.651Z,6.49
2023-02-14T11:32:48.756Z,6.49
2023-02-14T11:33:48.546Z,6.55
2023-02-14T11:34:48.497Z,6.58
2023-02-14T11:35:48.511Z,6.58
2023-02-14T11:36:48.476Z,6.62
2023-02-14T11:37:48.486Z,6.69
2023-02-14T11:38:48.497Z,6.73
2023-02-14T11:39:48.452Z,6.73
2023-02-14T11:40:48.428Z,6.77
2023-02-14T11:41:48.439Z,6.84
2023-02-14T11:42:51.607Z,6.85
2023-02-14T11:43:49.468Z,6.81
2023-02-14T11:44:48.368Z,6.88
2023-02-14T11:45:48.455Z,6.91
2023-02-14T11:46:53.428Z,6.97
2023-02-14T11:47:49.365Z,7.06
2023-02-14T11:48:48.336Z,7.17
2023-02-14T11:49:48.414Z,7.25
2023-02-14T11:50:48.294Z,7.31
2023-02-14T11:51:48.381Z,7.32
2023-02-14T11:52:48.274Z,7.37
2023-02-14T11:53:48.291Z,7.35
2023-02-14T11:54:48.236Z,7.39
2023-02-14T11:55:48.525Z,7.46
2023-02-14T11:56:48.219Z,7.50
2023-02-14T11:57:48.254Z,7.52
2023-02-14T11:58:48.224Z,7.58
2023-02-14T11:59:48.208Z,7.64
2023-02-14T12:00:48.164Z,7.75
2023-02-14T12:01:48.279Z,7.86
2023-02-14T12:02:48.191Z,7.89
2023-02-14T12:03:48.186Z,7.90
2023-02-14T12:04:48.102Z,7.95
2023-02-14T12:05:48.123Z,8.00
2023-02-14T12:06:48.119Z,8.07
2023-02-14T12:07:48.163Z,8.11
2023-02-14T12:08:48.130Z,8.18
2023-02-14T12:09:48.087Z,8.16
2023-02-14T12:10:48.042Z,8.11
2023-02-14T12:11:48.057Z,8.18
2023-02-14T12:12:48.023Z,8.25
2023-02-14T12:13:48.061Z,8.33
2023-02-14T12:14:48.009Z,8.36
2023-02-14T12:15:48.058Z,8.30
2023-02-14T12:16:48.027Z,8.29
2023-02-14T12:17:56.299Z,8.30
2023-02-14T12:18:48.171Z,8.36
2023-02-14T12:19:48.422Z,8.37
2023-02-14T12:20:47.910Z,8.41
2023-02-14T12:21:47.921Z,8.45
2023-02-14T12:22:47.906Z,8.48
2023-02-14T12:23:47.913Z,8.53
2023-02-14T12:24:47.861Z,8.56
2023-02-14T12:25:48.044Z,8.61
2023-02-14T12:26:47.841Z,8.68
2023-02-14T12:27:47.845Z,8.74
2023-02-14T12:28:47.866Z,8.79
2023-02-14T12:29:47.959Z,8.80
2023-02-14T12:30:47.847Z,8.89
2023-02-14T12:31:47.993Z,8.91
2023-02-14T12:32:47.773Z,8.92
2023-02-14T12:33:50.171Z,8.91
2023-02-14T12:34:47.790Z,8.91
2023-02-14T12:35:47.734Z,8.96
2023-02-14T12:36:47.768Z,8.99
2023-02-14T12:37:50.869Z,9.01
2023-02-14T12:38:48.806Z,9.05
2023-02-14T12:39:48.845Z,9.13
2023-02-14T12:40:47.681Z,9.15
2023-02-14T12:41:47.729Z,9.18
2023-02-14T12:42:47.897Z,9.23
2023-02-14T12:43:47.958Z,9.28
2023-02-14T12:44:47.694Z,9.24
2023-02-14T12:45:48.980Z,9.29
2023-02-14T12:46:47.730Z,9.36
2023-02-14T12:47:47.599Z,9.40
2023-02-14T12:48:47.621Z,9.48
2023-02-14T12:49:47.581Z,9.54
2023-02-14T12:50:47.537Z,9.58
2023-02-14T12:51:47.639Z,9.61
2023-02-14T12:52:47.513Z,9.64
2023-02-14T12:53:48.946Z,9.66
2023-02-14T12:54:47.489Z,9.72
2023-02-14T12:55:47.632Z,9.76
2023-02-14T12:56:47.508Z,9.74
2023-02-14T12:57:47.476Z,9.78
2023-02-14T12:58:47.444Z,9.86
2023-02-14T12:59:47.452Z,9.93
2023-02-14T13:00:47.440Z,10.04
2023-02-14T13:01:47.473Z,10.07
2023-02-14T13:02:47.466Z,10.09
2023-02-14T13:03:47.471Z,10.15
2023-02-14T13:04:47.545Z,10.20
2023-02-14T13:05:47.471Z,10.17
2023-02-14T13:06:47.339Z,10.18
2023-02-14T13:07:47.340Z,10.22
2023-02-14T13:08:47.364Z,10.25
2023-02-14T13:09:47.357Z,10.29
2023-02-14T13:10:47.277Z,10.34
2023-02-14T13:11:47.315Z,10.41
2023-02-14T13:12:47.260Z,10.45
2023-02-14T13:13:47.291Z,10.52
2023-02-14T13:14:47.296Z,10.56
2023-02-14T13:15:47.283Z,10.63
2023-02-14T13:16:47.358Z,10.63
2023-02-14T13:17:47.219Z,10.61
2023-02-14T13:18:47.193Z,10.67
2023-02-14T13:19:47.196Z,10.71
2023-02-14T13:20:47.225Z,10.78
2023-02-14T13:21:47.189Z,10.85
2023-02-14T13:22:47.200Z,10.85
2023-02-14T13:23:47.146Z,10.88
2023-02-14T13:24:47.108Z,10.82
2023-02-14T13:25:47.109Z,10.81
2023-02-14T13:26:47.131Z,10.78
2023-02-14T13:27:47.108Z,10.86
2023-02-14T13:28:47.060Z,10.86
2023-02-14T13:29:47.082Z,10.94
2023-02-14T13:30:47.068Z,11.00
2023-02-14T13:31:47.168Z,11.06
2023-02-14T13:32:47.051Z,11.15
2023-02-14T13:33:47.053Z,11.19
2023-02-14T13:34:47.006Z,11.21
2023-02-14T13:35:47.010Z,11.21
2023-02-14T13:36:46.964Z,11.21
2023-02-14T13:37:47.068Z,11.27
2023-02-14T13:38:46.955Z,11.28
2023-02-14T13:39:46.969Z,11.29
2023-02-14T13:40:46.896Z,11.32
2023-02-14T13:41:46.915Z,11.39
2023-02-14T13:42:46.950Z,11.43
2023-02-14T13:43:46.895Z,11.55
2023-02-14T13:44:46.855Z,11.64
2023-02-14T13:45:46.864Z,11.70
2023-02-14T13:46:46.911Z,11.70
2023-02-14T13:47:46.923Z,11.70
2023-02-14T13:48:46.806Z,11.69
2023-02-14T13:49:46.821Z,11.69
2023-02-14T13:50:46.783Z,11.72
2023-02-14T13:51:46.783Z,11.60
2023-02-14T13:52:46.756Z,11.55
2023-02-14T13:53:46.830Z,11.51
2023-02-14T13:54:46.731Z,11.44
2023-02-14T13:55:48.718Z,11.55
2023-02-14T13:56:46.706Z,11.62
2023-02-14T13:57:46.721Z,11.64
2023-02-14T13:58:46.680Z,11.72
2023-02-14T13:59:46.758Z,11.69
2023-02-14T14:00:46.817Z,11.67
2023-02-14T14:01:46.678Z,11.73
2023-02-14T14:02:46.637Z,11.73
2023-02-14T14:03:46.662Z,11.67
2023-02-14T14:04:46.605Z,11.69
2023-02-14T14:05:46.742Z,11.73
2023-02-14T14:06:46.704Z,11.78
2023-02-14T14:07:46.580Z,11.83
2023-02-14T14:08:46.537Z,11.86
2023-02-14T14:09:46.540Z,11.86
2023-02-14T14:10:46.565Z,11.98
2023-02-14T14:11:49.835Z,12.01
2023-02-14T14:12:46.506Z,11.99
2023-02-14T14:13:46.803Z,11.96
2023-02-14T14:14:46.477Z,11.99
2023-02-14T14:15:46.455Z,11.98
2023-02-14T14:16:46.511Z,11.99
2023-02-14T14:17:46.470Z,11.99
2023-02-14T14:18:46.424Z,12.01
2023-02-14T14:19:47.117Z,12.09
2023-02-14T14:20:46.395Z,12.14
2023-02-14T14:21:46.364Z,12.20
2023-02-14T14:22:46.392Z,12.24
2023-02-14T14:23:46.456Z,12.27
2023-02-14T14:24:46.346Z,12.27
2023-02-14T14:25:46.331Z,12.31
2023-02-14T14:26:46.326Z,12.39
2023-02-14T14:27:46.288Z,12.37
2023-02-14T14:28:46.315Z,12.39
2023-02-14T14:29:46.358Z,12.42
2023-02-14T14:30:46.349Z,12.38
2023-02-14T14:31:46.334Z,12.29
2023-02-14T14:32:46.280Z,12.27
2023-02-14T14:33:46.251Z,12.21
2023-02-14T14:34:46.240Z,12.21
2023-02-14T14:35:46.264Z,12.20
2023-02-14T14:36:46.202Z,12.21
2023-02-14T14:37:46.165Z,12.24
2023-02-14T14:38:46.193Z,12.28
2023-02-14T14:39:46.179Z,12.31
2023-02-14T14:40:46.162Z,12.34
2023-02-14T14:41:46.274Z,12.37
2023-02-14T14:42:46.112Z,12.38
2023-02-14T14:43:46.092Z,12.42
2023-02-14T14:44:46.087Z,12.46
2023-02-14T14:45:46.103Z,12.47
2023-02-14T14:46:46.069Z,12.52
2023-02-14T14:47:46.249Z,12.52
2023-02-14T14:48:46.045Z,12.49
2023-02-14T14:49:46.022Z,12.52
2023-02-14T14:50:46.032Z,12.49
2023-02-14T14:51:45.985Z,12.41
2023-02-14T14:52:45.993Z,12.45
2023-02-14T14:53:46.019Z,12.41
2023-02-14T14:54:45.989Z,12.37
2023-02-14T14:55:45.936Z,12.35
2023-02-14T14:56:45.947Z,12.31
2023-02-14T14:57:45.906Z,12.29
2023-02-14T14:58:46.028Z,12.24
2023-02-14T14:59:45.893Z,12.23
2023-02-14T15:00:45.913Z,12.28
2023-02-14T15:01:45.865Z,12.29
2023-02-14T15:02:45.874Z,12.34
2023-02-14T15:03:45.935Z,12.32
2023-02-14T15:04:45.909Z,12.34
2023-02-14T15:05:45.806Z,12.35
2023-02-14T15:06:45.828Z,12.34
2023-02-14T15:07:45.774Z,12.32
2023-02-14T15:08:49.930Z,12.32
2023-02-14T15:09:45.955Z,12.23
2023-02-14T15:10:45.764Z,12.21
2023-02-14T15:11:45.734Z,12.23
2023-02-14T15:12:45.775Z,12.24
2023-02-14T15:13:45.706Z,12.27
2023-02-14T15:14:45.775Z,12.27
2023-02-14T15:15:45.677Z,12.24
2023-02-14T15:16:45.736Z,12.24
2023-02-14T15:17:45.654Z,12.23
2023-02-14T15:18:45.659Z,12.19
2023-02-14T15:19:45.665Z,12.17
2023-02-14T15:20:45.624Z,12.17
2023-02-14T15:21:45.595Z,12.16
2023-02-14T15:22:45.627Z,12.14
2023-02-14T15:23:45.564Z,12.13
2023-02-14T15:24:45.621Z,12.12
2023-02-14T15:25:45.547Z,12.12
2023-02-14T15:26:45.576Z,12.09
2023-02-14T15:27:45.523Z,12.07
2023-02-14T15:28:45.534Z,12.04
2023-02-14T15:29:45.552Z,11.98
2023-02-14T15:30:45.539Z,11.98
2023-02-14T15:31:45.566Z,11.95
2023-02-14T15:32:45.477Z,11.95
2023-02-14T15:33:45.443Z,11.96
2023-02-14T15:34:45.475Z,11.90
2023-02-14T15:35:45.474Z,11.88
2023-02-14T15:36:45.499Z,11.86
2023-02-14T15:37:45.387Z,11.78
2023-02-14T15:38:45.402Z,11.75
2023-02-14T15:39:45.396Z,11.73
2023-02-14T15:40:45.364Z,11.72
2023-02-14T15:41:45.334Z,11.67
2023-02-14T15:42:45.342Z,11.62
2023-02-14T15:43:45.317Z,11.60
2023-02-14T15:44:45.363Z,11.52
2023-02-14T15:45:45.367Z,11.46
2023-02-14T15:46:45.311Z,11.42
2023-02-14T15:47:45.252Z,11.37
2023-02-14T15:48:45.273Z,11.33
2023-02-14T15:49:45.350Z,11.29
2023-02-14T15:50:45.241Z,11.27
2023-02-14T15:51:45.209Z,11.24
2023-02-14T15:52:45.213Z,11.19
2023-02-14T15:53:45.180Z,11.18
2023-02-14T15:54:45.184Z,11.14
2023-02-14T15:55:45.201Z,11.10
2023-02-14T15:56:45.170Z,11.04
2023-02-14T15:57:45.130Z,11.02
2023-02-14T15:58:45.147Z,10.97
2023-02-14T15:59:45.208Z,10.94
2023-02-14T16:00:45.115Z,10.89
2023-02-14T16:01:45.109Z,10.85
2023-02-14T16:02:45.143Z,10.79
2023-02-14T16:03:45.050Z,10.71
2023-02-14T16:04:45.111Z,10.68
2023-02-14T16:05:45.029Z,10.64
2023-02-14T16:06:45.042Z,10.61
2023-02-14T16:07:45.001Z,10.59
2023-02-14T16:08:45.006Z,10.48
2023-02-14T16:09:45.005Z,10.41
2023-02-14T16:10:44.973Z,10.33
2023-02-14T16:11:44.945Z,10.27
2023-02-14T16:12:44.956Z,10.22
2023-02-14T16:13:44.935Z,10.12
2023-02-14T16:14:45.136Z,10.07
2023-02-14T16:15:44.932Z,9.97
2023-02-14T16:16:44.914Z,9.91
2023-02-14T16:17:44.878Z,9.87
2023-02-14T16:18:44.936Z,9.83
2023-02-14T16:19:44.880Z,9.75
2023-02-14T16:20:44.954Z,9.68
2023-02-14T16:21:44.862Z,9.60
2023-02-14T16:22:44.831Z,9.53
2023-02-14T16:23:44.830Z,9.46
2023-02-14T16:24:44.813Z,9.40
2023-02-14T16:25:44.815Z,9.33
2023-02-14T16:26:44.793Z,9.28
2023-02-14T16:27:44.738Z,9.21
2023-02-14T16:28:44.757Z,9.15
2023-02-14T16:29:44.716Z,9.08
2023-02-14T16:30:44.816Z,9.01
2023-02-14T16:32:06.252Z,8.95
2023-02-14T16:32:46.003Z,8.92
2023-02-14T16:33:44.675Z,8.86
2023-02-14T16:34:44.670Z,8.81
2023-02-14T16:35:44.717Z,8.80
2023-02-14T16:36:44.643Z,8.73
2023-02-14T16:37:44.733Z,8.65
2023-02-14T16:38:44.700Z,8.61
2023-02-14T16:39:44.603Z,8.52
2023-02-14T16:40:44.696Z,8.47
2023-02-14T16:41:44.616Z,8.38
2023-02-14T16:42:44.629Z,8.26
2023-02-14T16:43:44.556Z,8.20
2023-02-14T16:44:44.622Z,8.08
2023-02-14T16:45:44.559Z,8.01
2023-02-14T16:46:44.520Z,7.93
2023-02-14T16:47:44.495Z,7.86
2023-02-14T16:48:44.496Z,7.77
2023-02-14T16:49:44.479Z,7.71
2023-02-14T16:50:44.524Z,7.64
2023-02-14T16:51:44.493Z,7.57
2023-02-14T16:52:44.452Z,7.49
2023-02-14T16:53:44.414Z,7.42
2023-02-14T16:54:44.432Z,7.39
2023-02-14T16:55:44.423Z,7.35
2023-02-14T16:56:44.396Z,7.32
2023-02-14T16:57:44.402Z,7.25
2023-02-14T16:58:44.363Z,7.24
2023-02-14T16:59:44.514Z,7.17
2023-02-14T17:00:44.374Z,7.13
2023-02-14T17:01:44.353Z,7.10
2023-02-14T17:02:44.511Z,7.06
2023-02-14T17:03:44.449Z,7.03
2023-02-14T17:04:44.329Z,6.98
2023-02-14T17:05:44.694Z,6.94
2023-02-14T17:06:44.297Z,6.88
2023-02-14T17:07:44.248Z,6.84
2023-02-14T17:08:44.240Z,6.77
2023-02-14T17:09:44.310Z,6.76
2023-02-14T17:10:44.219Z,6.74
2023-02-14T17:11:44.385Z,6.69
2023-02-14T17:12:44.218Z,6.62
2023-02-14T17:13:44.151Z,6.54
2023-02-14T17:14:51.204Z,6.48
2023-02-14T17:15:44.884Z,6.43
2023-02-14T17:16:44.128Z,6.37
2023-02-14T17:17:44.168Z,6.31
2023-02-14T17:18:44.127Z,6.27
2023-02-14T17:19:44.108Z,6.21
2023-02-14T17:20:44.122Z,6.14
2023-02-14T17:21:44.098Z,6.09
2023-02-14T17:22:44.157Z,6.01
2023-02-14T17:23:44.280Z,5.99
2023-02-14T17:24:44.047Z,6.00
2023-02-14T17:25:44.002Z,6.00
2023-02-14T17:26:44.045Z,5.99
2023-02-14T17:27:43.994Z,5.97
2023-02-14T17:28:44.012Z,5.93
2023-02-14T17:29:44.124Z,5.91
2023-02-14T17:30:43.993Z,5.89
2023-02-14T17:31:44.163Z,5.85
2023-02-14T17:32:43.958Z,5.82
2023-02-14T17:33:43.914Z,5.82
2023-02-14T17:34:43.961Z,5.82
2023-02-14T17:35:43.958Z,5.79
2023-02-14T17:36:43.893Z,5.74
2023-02-14T17:37:43.856Z,5.71
2023-02-14T17:38:50.875Z,5.64
2023-02-14T17:39:50.865Z,5.58
2023-02-14T17:40:50.934Z,5.56
2023-02-14T17:41:50.833Z,5.49
2023-02-14T17:42:50.846Z,5.46
2023-02-14T17:43:51.280Z,5.42
2023-02-14T17:44:43.781Z,5.39
2023-02-14T17:45:43.751Z,5.35
2023-02-14T17:46:45.809Z,5.33
2023-02-14T17:47:43.729Z,5.33
2023-02-14T17:48:43.740Z,5.39
2023-02-14T17:49:43.704Z,5.45
2023-02-14T17:50:43.717Z,5.58
2023-02-14T17:51:43.686Z,5.63
2023-02-14T17:52:43.780Z,5.64
2023-02-14T17:53:43.658Z,5.67
2023-02-14T17:54:43.649Z,5.68
2023-02-14T17:55:43.654Z,5.71
2023-02-14T17:56:43.640Z,5.71
2023-02-14T17:57:43.609Z,5.65
2023-02-14T17:58:43.895Z,5.63
2023-02-14T17:59:43.590Z,5.58
2023-02-14T18:00:43.598Z,5.56
2023-02-14T18:01:43.677Z,5.53
2023-02-14T18:02:43.592Z,5.49
2023-02-14T18:03:43.548Z,5.43
2023-02-14T18:04:43.622Z,5.39
2023-02-14T18:05:43.524Z,5.35
2023-02-14T18:06:43.592Z,5.28
2023-02-14T18:07:43.505Z,5.24